Time;durP1;ratioP1;P1;durP2;ratioP2;P2;SDS_P1;SDS_P2;PMS_P1;PMS_P2;Temp;Humidity;BMP_temperature;BMP_pressure;BME280_temperature;BME280_humidity;BME280_pressure;Samples;Min_cycle;Max_cycle;Signal;HPM_P1;HPM_P2
2022/09/12 00:01:57;;;;;;;42.85;33.13;;;12.60;99.90;;;;;;5039631;28;20093;-28
2022/09/12 00:04:23;;;;;;;43.22;31.73;;;12.60;99.90;;;;;;5039574;28;20084;-28
2022/09/12 00:06:48;;;;;;;51.45;37.42;;;12.60;99.90;;;;;;5035485;28;20056;-28
2022/09/12 00:09:15;;;;;;;40.58;31.13;;;12.60;99.90;;;;;;5036390;28;20081;-28
2022/09/12 00:11:44;;;;;;;36.90;31.38;;;12.50;99.90;;;;;;5036099;28;20614;-28
2022/09/12 00:14:15;;;;;;;57.65;40.03;;;12.50;99.90;;;;;;5037143;28;20049;-28
2022/09/12 00:16:41;;;;;;;50.25;38.10;;;12.60;99.90;;;;;;5035374;28;20053;-28
2022/09/12 00:19:08;;;;;;;43.00;32.17;;;12.60;99.90;;;;;;5036254;28;20084;-29
2022/09/12 00:21:36;;;;;;;50.22;37.17;;;12.50;99.90;;;;;;5036746;28;20086;-28
2022/09/12 00:24:03;;;;;;;53.67;39.13;;;12.60;99.90;;;;;;5036018;28;20045;-28
2022/09/12 00:26:29;;;;;;;50.53;36.83;;;12.60;99.90;;;;;;5036069;28;20505;-29
2022/09/12 00:28:55;;;;;;;51.10;37.90;;;12.60;99.90;;;;;;5036845;28;20427;-28
2022/09/12 00:31:24;;;;;;;51.08;38.92;;;12.60;99.90;;;;;;5036043;28;20042;-28
2022/09/12 00:33:50;;;;;;;51.75;39.33;;;12.60;99.90;;;;;;5035014;28;20140;-28
2022/09/12 00:36:18;;;;;;;52.35;37.42;;;12.60;99.90;;;;;;5036260;28;20072;-29
2022/09/12 00:38:45;;;;;;;45.55;33.30;;;12.60;99.90;;;;;;5035385;28;20480;-29
2022/09/12 00:41:29;;;;;;;60.97;40.67;;;12.60;99.90;;;;;;5035485;28;20107;-28
2022/09/12 00:44:14;;;;;;;53.70;38.42;;;12.60;99.90;;;;;;5035871;28;20049;-28
2022/09/12 00:46:49;;;;;;;79.47;47.97;;;12.50;99.90;;;;;;5036206;28;20085;-29
2022/09/12 00:49:15;;;;;;;57.10;40.00;;;12.50;99.90;;;;;;5035722;28;20041;-28
2022/09/12 00:52:03;;;;;;;57.83;40.15;;;12.50;99.90;;;;;;5034740;28;20052;-28
2022/09/12 00:54:39;;;;;;;72.60;46.13;;;12.50;99.90;;;;;;5034759;28;20049;-29
2022/09/12 00:57:07;;;;;;;55.15;37.25;;;12.30;99.90;;;;;;5036147;28;20431;-28
2022/09/12 00:59:57;;;;;;;63.47;42.65;;;12.50;99.90;;;;;;5035801;28;20456;-28
2022/09/12 01:02:23;;;;;;;54.42;35.00;;;12.50;99.90;;;;;;5034551;28;20056;-28
2022/09/12 01:04:49;;;;;;;58.40;40.33;;;12.50;99.90;;;;;;5034466;28;20057;-28
2022/09/12 01:07:15;;;;;;;83.53;49.88;;;12.50;99.90;;;;;;5035442;28;20064;-28
2022/09/12 01:09:43;;;;;;;76.28;46.10;;;12.50;99.90;;;;;;5035548;28;20537;-29
2022/09/12 01:12:10;;;;;;;51.08;37.67;;;12.40;99.90;;;;;;5034309;28;20048;-28
2022/09/12 01:14:37;;;;;;;49.08;38.30;;;12.40;99.90;;;;;;5035247;28;20041;-28
2022/09/12 01:17:03;;;;;;;47.70;36.40;;;12.50;99.90;;;;;;5033633;28;20136;-28
2022/09/12 01:20:06;;;;;;;48.67;36.80;;;12.40;99.90;;;;;;5035956;28;20124;-28
2022/09/12 01:22:44;;;;;;;64.03;43.77;;;12.40;99.90;;;;;;5034174;28;20045;-28
2022/09/12 01:25:18;;;;;;;58.40;40.47;;;12.40;99.90;;;;;;5035054;28;20056;-28
2022/09/12 01:28:06;;;;;;;61.40;40.25;;;12.30;99.90;;;;;;5017196;28;20452;-29
2022/09/12 01:30:35;;;;;;;75.30;47.35;;;12.40;99.90;;;;;;5035811;28;20045;-28
2022/09/12 01:33:19;;;;;;;81.32;49.80;;;12.40;99.90;;;;;;5034831;28;20049;-28
2022/09/12 01:36:22;;;;;;;60.90;41.88;;;12.50;99.90;;;;;;5035692;28;20045;-28
2022/09/12 01:38:58;;;;;;;65.07;44.83;;;12.50;99.90;;;;;;5035037;28;20068;-28
2022/09/12 01:41:37;;;;;;;62.42;42.72;;;12.40;99.90;;;;;;5034609;28;20053;-28
2022/09/12 01:44:13;;;;;;;78.63;47.33;;;12.40;99.90;;;;;;5017871;28;20049;-28
2022/09/12 01:47:01;;;;;;;66.25;43.28;;;12.40;99.90;;;;;;5034527;28;20045;-28
2022/09/12 01:49:56;;;;;;;67.43;43.40;;;12.30;99.90;;;;;;5035371;28;20103;-28
2022/09/12 01:52:49;;;;;;;86.22;51.45;;;12.30;99.90;;;;;;5034581;28;20045;-28
2022/09/12 01:55:17;;;;;;;79.95;48.78;;;12.30;99.90;;;;;;5031352;28;20060;-28
2022/09/12 01:57:52;;;;;;;72.43;47.45;;;12.30;99.90;;;;;;5034406;28;20048;-28
2022/09/12 02:00:18;;;;;;;73.05;45.67;;;12.30;99.90;;;;;;5034708;28;20446;-28
2022/09/12 02:02:49;;;;;;;69.10;47.58;;;12.30;99.90;;;;;;5034337;28;20099;-28
2022/09/12 02:05:21;;;;;;;64.18;44.50;;;12.20;99.90;;;;;;5034282;28;20099;-28
2022/09/12 02:08:00;;;;;;;91.13;51.35;;;12.30;99.90;;;;;;5034192;28;20045;-28
2022/09/12 02:10:31;;;;;;;81.40;48.15;;;12.30;99.90;;;;;;5033573;28;20053;-28
2022/09/12 02:13:13;;;;;;;72.28;47.30;;;12.30;99.90;;;;;;5034748;28;20045;-28
2022/09/12 02:15:48;;;;;;;75.22;47.22;;;12.30;99.90;;;;;;5017266;28;20365;-28
2022/09/12 02:18:17;;;;;;;60.05;43.33;;;12.20;99.90;;;;;;5034681;28;20407;-28
2022/09/12 02:20:46;;;;;;;73.50;45.72;;;12.10;99.90;;;;;;5033077;28;20467;-28
2022/09/12 02:23:32;;;;;;;72.28;46.80;;;12.00;99.90;;;;;;5033009;28;20480;-28
2022/09/12 02:26:05;;;;;;;51.00;38.03;;;12.10;99.90;;;;;;5033736;28;20635;-28
2022/09/12 02:28:34;;;;;;;82.73;47.00;;;12.10;99.90;;;;;;5032605;28;20045;-28
2022/09/12 02:31:13;;;;;;;62.22;42.50;;;12.10;99.90;;;;;;5033736;28;20041;-28
2022/09/12 02:33:42;;;;;;;80.55;46.30;;;12.10;99.90;;;;;;5033832;28;20045;-28
2022/09/12 02:36:43;;;;;;;66.80;43.03;;;12.10;99.90;;;;;;5034389;28;20056;-28
2022/09/12 02:39:08;;;;;;;71.50;43.15;;;12.10;99.90;;;;;;5033886;28;20160;-28
2022/09/12 02:41:34;;;;;;;83.03;48.50;;;12.10;99.90;;;;;;5033512;28;20092;-28
2022/09/12 02:44:02;;;;;;;74.03;44.42;;;12.00;99.90;;;;;;5034531;28;20048;-28
2022/09/12 02:46:37;;;;;;;76.47;47.05;;;12.00;99.90;;;;;;5034131;28;20096;-28
2022/09/12 02:49:03;;;;;;;66.65;44.22;;;12.00;99.90;;;;;;5033930;28;20044;-28
2022/09/12 02:51:29;;;;;;;72.70;46.13;;;12.10;99.90;;;;;;5033667;28;20045;-28
2022/09/12 02:53:56;;;;;;;79.07;48.30;;;12.10;99.90;;;;;;5033617;28;20049;-28
2022/09/12 02:56:27;;;;;;;79.78;48.28;;;12.00;99.90;;;;;;5033624;28;20052;-28
2022/09/12 02:58:58;;;;;;;72.30;45.47;;;12.00;99.90;;;;;;5033855;28;20041;-28
2022/09/12 03:02:01;;;;;;;72.70;44.08;;;12.00;99.90;;;;;;5033910;28;20076;-28
2022/09/12 03:04:42;;;;;;;67.25;45.22;;;12.00;99.90;;;;;;5032671;28;20053;-27
2022/09/12 03:07:18;;;;;;;89.95;47.92;;;12.00;99.90;;;;;;5034416;28;20099;-28
2022/09/12 03:09:56;;;;;;;90.25;49.33;;;12.00;99.90;;;;;;5033425;28;20495;-28
2022/09/12 03:12:41;;;;;;;105.15;51.28;;;11.90;99.90;;;;;;5034117;28;20054;-28
2022/09/12 03:15:26;;;;;;;223.95;52.22;;;11.90;99.90;;;;;;5033786;28;20089;-28
2022/09/12 03:18:18;;;;;;;98.88;42.05;;;11.90;99.90;;;;;;5033383;28;20049;-28
2022/09/12 03:21:27;;;;;;;145.15;44.78;;;11.80;99.90;;;;;;5033732;28;20104;-28
2022/09/12 03:24:13;;;;;;;82.45;44.67;;;11.70;99.90;;;;;;5034237;28;20081;-28
2022/09/12 03:27:12;;;;;;;100.20;46.97;;;11.80;99.90;;;;;;5033227;28;20479;-28
2022/09/12 03:29:39;;;;;;;72.63;40.60;;;11.60;99.90;;;;;;5033355;28;20058;-28
2022/09/12 03:32:04;;;;;;;63.03;40.50;;;11.60;99.90;;;;;;5033302;28;20057;-28
2022/09/12 03:34:30;;;;;;;60.60;38.75;;;11.60;99.90;;;;;;5033813;28;20120;-27
2022/09/12 03:36:56;;;;;;;57.72;38.40;;;11.60;99.90;;;;;;5033491;28;20124;-28
2022/09/12 03:39:23;;;;;;;67.90;40.58;;;11.60;99.90;;;;;;5032955;28;20442;-27
2022/09/12 03:41:50;;;;;;;59.80;37.95;;;11.60;99.90;;;;;;5036480;28;20381;-28
2022/09/12 03:44:16;;;;;;;61.20;40.47;;;11.50;99.90;;;;;;5036951;28;20391;-28
2022/09/12 03:46:42;;;;;;;70.03;43.17;;;11.60;99.90;;;;;;5036780;28;20052;-27
2022/09/12 03:49:09;;;;;;;65.82;40.85;;;11.70;99.90;;;;;;5036749;28;20049;-28
2022/09/12 03:51:35;;;;;;;77.35;42.25;;;11.50;99.90;;;;;;5037589;28;20049;-28
2022/09/12 03:54:01;;;;;;;66.20;40.53;;;11.60;99.90;;;;;;5036720;28;20107;-27
2022/09/12 03:56:28;;;;;;;84.82;44.63;;;11.70;99.90;;;;;;5036738;28;20045;-28
2022/09/12 03:58:53;;;;;;;81.95;45.45;;;11.60;99.90;;;;;;5037188;28;20048;-28
2022/09/12 04:01:19;;;;;;;88.43;46.95;;;11.70;99.90;;;;;;5036635;28;20046;-27
2022/09/12 04:03:47;;;;;;;93.05;47.55;;;11.80;99.90;;;;;;5036583;28;20046;-27
2022/09/12 04:06:15;;;;;;;83.68;46.05;;;11.80;99.90;;;;;;5036524;28;20065;-28
2022/09/12 04:08:42;;;;;;;95.00;49.17;;;11.80;99.90;;;;;;5036083;28;20392;-27
2022/09/12 04:11:11;;;;;;;98.88;50.15;;;11.80;99.90;;;;;;5036453;28;20511;-27
2022/09/12 04:13:38;;;;;;;93.93;48.55;;;11.70;99.90;;;;;;5036704;28;20046;-28
2022/09/12 04:16:04;;;;;;;97.78;48.60;;;11.80;99.90;;;;;;5036373;28;20088;-27
2022/09/12 04:18:30;;;;;;;84.28;46.38;;;11.90;99.90;;;;;;5036359;28;20042;-27
2022/09/12 04:20:57;;;;;;;101.43;50.00;;;11.80;99.90;;;;;;5036535;28;20387;-27
2022/09/12 04:23:23;;;;;;;86.25;46.03;;;12.00;99.90;;;;;;5036209;28;20103;-27
2022/09/12 04:25:59;;;;;;;86.57;46.38;;;12.00;99.90;;;;;;5036151;28;20099;-27
2022/09/12 04:28:27;;;;;;;90.78;47.72;;;12.00;99.90;;;;;;5035405;28;20045;-28
2022/09/12 04:30:54;;;;;;;90.82;47.10;;;12.00;99.90;;;;;;5036633;28;20125;-28
2022/09/12 04:33:20;;;;;;;104.68;52.25;;;12.10;99.90;;;;;;5036036;28;20080;-29
2022/09/12 04:35:46;;;;;;;84.82;45.55;;;12.00;99.90;;;;;;5036819;28;20049;-27
2022/09/12 04:38:13;;;;;;;86.50;45.92;;;12.10;99.90;;;;;;5035999;28;20037;-27
2022/09/12 04:40:38;;;;;;;90.70;47.92;;;12.10;99.90;;;;;;5036106;28;20065;-28
2022/09/12 04:43:05;;;;;;;88.65;47.83;;;12.30;99.90;;;;;;5034701;28;20567;-27
2022/09/12 04:45:31;;;;;;;94.30;48.85;;;12.30;99.90;;;;;;5036586;28;20057;-27
2022/09/12 04:47:57;;;;;;;89.85;47.83;;;12.20;99.90;;;;;;5035386;28;20492;-28
2022/09/12 04:50:23;;;;;;;79.65;44.03;;;12.20;99.90;;;;;;5035718;28;20045;-28
2022/09/12 04:52:53;;;;;;;81.70;44.20;;;12.30;99.90;;;;;;5017604;28;20088;-28
2022/09/12 04:55:20;;;;;;;76.05;44.20;;;12.40;99.90;;;;;;5034639;28;20060;-28
2022/09/12 04:57:46;;;;;;;80.97;44.78;;;12.50;99.90;;;;;;5034396;28;20048;-27
2022/09/12 05:00:13;;;;;;;87.93;46.05;;;12.50;99.90;;;;;;5034573;28;20049;-28
2022/09/12 05:02:42;;;;;;;82.07;43.35;;;12.50;99.90;;;;;;5035974;28;20049;-28
2022/09/12 05:05:08;;;;;;;83.35;44.28;;;12.50;99.90;;;;;;5018334;28;20490;-28
2022/09/12 05:07:34;;;;;;;91.78;47.65;;;12.50;99.90;;;;;;5034984;28;20416;-27
2022/09/12 05:10:02;;;;;;;90.88;45.97;;;12.60;99.90;;;;;;5034113;28;20088;-28
2022/09/12 05:12:27;;;;;;;84.53;45.45;;;12.70;99.90;;;;;;5035300;28;20124;-28
2022/09/12 05:14:53;;;;;;;76.35;42.95;;;12.70;99.90;;;;;;5034976;28;20464;-28
2022/09/12 05:17:19;;;;;;;85.82;45.58;;;12.70;99.90;;;;;;5035233;28;20044;-29
2022/09/12 05:19:44;;;;;;;88.50;46.78;;;12.70;99.90;;;;;;5035456;28;20049;-28
2022/09/12 05:22:10;;;;;;;83.40;45.65;;;12.90;99.90;;;;;;5035390;28;20383;-28
2022/09/12 05:24:42;;;;;;;77.32;43.05;;;12.90;99.90;;;;;;5035638;28;20467;-28
2022/09/12 05:27:08;;;;;;;73.18;42.15;;;12.90;99.90;;;;;;5035058;28;20491;-28
2022/09/12 05:29:34;;;;;;;71.97;40.90;;;12.90;99.90;;;;;;5034861;28;20045;-28
2022/09/12 05:32:01;;;;;;;75.40;42.83;;;12.90;99.90;;;;;;5035459;28;20050;-28
2022/09/12 05:34:26;;;;;;;77.15;41.83;;;12.90;99.90;;;;;;5034900;28;20060;-29
2022/09/12 05:36:52;;;;;;;71.72;41.00;;;12.90;99.90;;;;;;5033890;28;20128;-28
2022/09/12 05:39:18;;;;;;;67.90;40.13;;;13.00;99.90;;;;;;5034974;28;20053;-28
2022/09/12 05:41:44;;;;;;;76.22;42.90;;;13.00;99.90;;;;;;5034801;28;20547;-28
2022/09/12 05:44:11;;;;;;;76.45;42.10;;;13.10;99.90;;;;;;5034074;28;20057;-28
2022/09/12 05:46:42;;;;;;;75.05;45.08;;;13.10;99.90;;;;;;5034665;28;20092;-28
2022/09/12 05:49:10;;;;;;;70.95;41.55;;;13.10;99.90;;;;;;5033469;28;20534;-28
2022/09/12 05:51:39;;;;;;;68.70;42.25;;;13.30;99.90;;;;;;5035123;28;20045;-28
2022/09/12 05:54:07;;;;;;;66.93;39.17;;;13.30;99.90;;;;;;5034495;28;20057;-28
2022/09/12 05:56:38;;;;;;;68.55;41.08;;;13.30;99.90;;;;;;5034441;28;20046;-28
2022/09/12 05:59:18;;;;;;;61.60;39.60;;;13.40;99.90;;;;;;5035300;28;20097;-28
2022/09/12 06:01:44;;;;;;;64.32;40.17;;;13.40;99.90;;;;;;5034422;28;20049;-28
2022/09/12 06:04:10;;;;;;;70.10;41.28;;;13.50;99.90;;;;;;5032130;28;20053;-28
2022/09/12 06:06:43;;;;;;;62.63;40.38;;;13.60;99.90;;;;;;5034599;28;20053;-28
2022/09/12 06:09:10;;;;;;;62.17;40.13;;;13.60;99.90;;;;;;5033094;28;20049;-28
2022/09/12 06:11:39;;;;;;;61.70;41.03;;;13.70;99.90;;;;;;5034226;28;20132;-28
2022/09/12 06:14:05;;;;;;;58.00;37.67;;;13.80;99.90;;;;;;5032924;28;20045;-28
2022/09/12 06:16:33;;;;;;;55.88;36.80;;;13.90;99.90;;;;;;5034188;28;20124;-29
2022/09/12 06:19:01;;;;;;;56.28;38.38;;;13.90;99.90;;;;;;5034104;28;20088;-28
2022/09/12 06:21:29;;;;;;;54.53;35.97;;;14.00;99.90;;;;;;5034638;28;20106;-29
2022/09/12 06:23:57;;;;;;;56.22;36.63;;;14.10;99.90;;;;;;5033059;28;20045;-29
2022/09/12 06:26:24;;;;;;;58.08;37.42;;;14.10;99.90;;;;;;5032832;28;20057;-29
2022/09/12 06:28:52;;;;;;;52.95;34.70;;;14.20;99.90;;;;;;5033832;28;20510;-28
2022/09/12 06:31:27;;;;;;;46.78;33.65;;;14.30;99.90;;;;;;5032696;28;20045;-29
2022/09/12 06:33:54;;;;;;;50.10;35.88;;;14.30;99.90;;;;;;5033864;28;20479;-29
2022/09/12 06:36:23;;;;;;;51.03;35.63;;;14.30;99.90;;;;;;5033843;28;20077;-29
2022/09/12 06:39:03;;;;;;;48.70;33.60;;;14.30;99.90;;;;;;5033507;28;20500;-28
2022/09/12 06:41:30;;;;;;;49.50;34.92;;;14.40;99.90;;;;;;5033835;28;20515;-29
2022/09/12 06:43:56;;;;;;;54.80;36.97;;;14.40;99.90;;;;;;5033781;28;20037;-29
2022/09/12 06:46:23;;;;;;;52.70;34.67;;;14.40;99.90;;;;;;5033651;28;20049;-29
2022/09/12 06:48:49;;;;;;;51.55;35.55;;;14.50;99.90;;;;;;5033667;28;20134;-29
2022/09/12 06:51:17;;;;;;;43.72;32.47;;;14.60;99.90;;;;;;5033656;28;20057;-29
2022/09/12 06:53:44;;;;;;;49.58;35.10;;;14.50;99.90;;;;;;5032666;28;20427;-28
2022/09/12 06:56:18;;;;;;;44.53;33.15;;;14.60;99.90;;;;;;5033649;28;20076;-29
2022/09/12 06:58:44;;;;;;;47.70;32.58;;;14.70;99.90;;;;;;5034469;28;20045;-29
2022/09/12 07:01:14;;;;;;;48.50;34.97;;;14.70;99.90;;;;;;5032948;28;20045;-28
2022/09/12 07:03:41;;;;;;;50.40;36.20;;;14.80;99.90;;;;;;5033618;28;20095;-29
2022/09/12 07:06:09;;;;;;;49.28;34.15;;;14.90;99.90;;;;;;5033525;28;20046;-29
2022/09/12 07:08:36;;;;;;;54.75;34.95;;;15.00;99.90;;;;;;5032687;28;20049;-29
2022/09/12 07:11:23;;;;;;;49.20;36.03;;;15.00;99.90;;;;;;5015836;28;20056;-29
2022/09/12 07:13:51;;;;;;;53.70;36.72;;;15.10;99.90;;;;;;5033683;28;20139;-29
2022/09/12 07:16:18;;;;;;;53.38;36.28;;;15.30;97.30;;;;;;5036029;28;20480;-29
2022/09/12 07:18:45;;;;;;;55.33;37.30;;;15.40;34.50;;;;;;5003725;28;20045;-29
2022/09/12 07:21:12;;;;;;;56.83;38.88;;;15.40;1.00;;;;;;5037411;28;20053;-29
2022/09/12 07:23:40;;;;;;;62.53;39.72;;;15.50;1.00;;;;;;5037334;28;20042;-29
2022/09/12 07:26:09;;;;;;;59.33;37.83;;;15.60;1.00;;;;;;5037344;28;20090;-29
2022/09/12 07:28:35;;;;;;;57.17;39.38;;;15.60;1.00;;;;;;5036009;28;20038;-29
2022/09/12 07:31:15;;;;;;;58.38;39.38;;;15.60;99.90;;;;;;5037131;28;20124;-29
2022/09/12 07:33:42;;;;;;;59.35;39.53;;;15.70;99.90;;;;;;5036198;28;20522;-29
2022/09/12 07:36:13;;;;;;;57.95;39.65;;;15.80;99.90;;;;;;5019651;28;20096;-29
2022/09/12 07:38:40;;;;;;;58.35;38.97;;;15.80;99.90;;;;;;5036508;28;20045;-29
2022/09/12 07:41:18;;;;;;;61.10;39.65;;;15.80;99.90;;;;;;5037680;28;20067;-29
2022/09/12 07:43:44;;;;;;;62.75;40.88;;;15.90;99.90;;;;;;5036979;28;20075;-29
2022/09/12 07:46:10;;;;;;;60.85;39.13;;;15.90;99.90;;;;;;5036856;28;20484;-29
2022/09/12 07:48:37;;;;;;;61.55;39.28;;;16.00;99.90;;;;;;5037381;28;20041;-30
2022/09/12 07:51:06;;;;;;;64.15;41.28;;;16.00;99.90;;;;;;5037132;28;20156;-29
2022/09/12 07:53:35;;;;;;;57.33;37.67;;;16.10;99.90;;;;;;5036801;28;20075;-29
2022/09/12 07:56:02;;;;;;;54.83;37.40;;;16.10;99.90;;;;;;5019299;28;20053;-30
2022/09/12 07:58:29;;;;;;;54.00;37.10;;;16.10;99.90;;;;;;5036682;28;20090;-30
2022/09/12 08:01:02;;;;;;;60.60;38.85;;;16.20;99.90;;;;;;5019722;28;20099;-30
2022/09/12 08:03:28;;;;;;;57.55;38.13;;;16.20;10.00;;;;;;5036543;28;20053;-30
2022/09/12 08:05:54;;;;;;;55.95;38.30;;;16.30;1.00;;;;;;5036231;28;20441;-30
2022/09/12 08:08:19;;;;;;;60.42;38.75;;;16.30;1.00;;;;;;5036463;28;20056;-30
2022/09/12 08:10:45;;;;;;;61.17;38.10;;;16.40;1.00;;;;;;5035278;28;20041;-31
2022/09/12 08:13:11;;;;;;;60.90;38.83;;;16.40;1.00;;;;;;5036472;28;20476;-29
2022/09/12 08:15:36;;;;;;;56.78;38.17;;;16.50;1.00;;;;;;5036402;28;20056;-30
2022/09/12 08:18:02;;;;;;;60.65;38.47;;;16.60;1.00;;;;;;5036378;28;20083;-30
2022/09/12 08:20:28;;;;;;;58.47;37.95;;;16.70;1.00;;;;;;5036567;28;20053;-30
2022/09/12 08:22:54;;;;;;;58.20;37.80;;;16.90;1.00;;;;;;5036321;28;20085;-30
2022/09/12 08:25:20;;;;;;;55.30;37.38;;;17.00;1.00;;;;;;5035805;28;20056;-30
2022/09/12 08:27:45;;;;;;;56.85;37.10;;;17.20;1.00;;;;;;5035088;28;20041;-30
2022/09/12 08:30:12;;;;;;;53.05;36.22;;;17.40;1.00;;;;;;5034927;28;20542;-30
2022/09/12 08:32:37;;;;;;;57.08;37.88;;;17.60;99.90;;;;;;5036059;28;20056;-30
2022/09/12 08:35:04;;;;;;;57.63;37.90;;;17.80;99.90;;;;;;5035078;28;20392;-30
2022/09/12 08:37:30;;;;;;;53.00;37.42;;;18.00;99.90;;;;;;5036526;28;20056;-30
2022/09/12 08:39:56;;;;;;;55.03;36.90;;;18.10;55.60;;;;;;5035569;28;20053;-30
2022/09/12 08:42:58;;;;;;;52.78;36.22;;;18.10;1.00;;;;;;5035932;28;20136;-30
2022/09/12 08:45:53;;;;;;;50.70;36.22;;;18.10;99.90;;;;;;5036000;28;20049;-30
2022/09/12 08:48:18;;;;;;;53.42;36.97;;;18.10;99.90;;;;;;5036072;28;20124;-30
2022/09/12 08:50:46;;;;;;;55.53;35.60;;;18.20;1.00;;;;;;5036597;28;20049;-31
2022/09/12 08:53:19;;;;;;;56.47;37.63;;;18.30;1.00;;;;;;5035685;28;20484;-30
2022/09/12 08:55:54;;;;;;;53.30;34.17;;;18.50;1.00;;;;;;5035662;28;20515;-31
2022/09/12 08:58:22;;;;;;;51.08;35.78;;;18.60;99.90;;;;;;5035879;28;20053;-30
2022/09/12 09:01:14;;;;;;;49.58;36.00;;;18.70;99.90;;;;;;5018149;28;20150;-30
2022/09/12 09:04:15;;;;;;;48.70;34.13;;;18.90;62.40;;;;;;5035561;28;20050;-30
2022/09/12 09:07:02;;;;;;;48.85;35.55;;;19.20;7.30;;;;;;5034655;28;20053;-30
2022/09/12 09:10:09;;;;;;;45.13;32.00;;;19.50;99.90;;;;;;5035697;28;20046;-30
2022/09/12 09:12:52;;;;;;;45.67;33.25;;;20.00;99.90;;;;;;5016050;28;20058;-30
2022/09/12 09:15:40;;;;;;;47.70;35.47;;;20.40;22.40;;;;;;5036203;28;20548;-30
2022/09/12 09:18:30;;;;;;;45.30;33.20;;;20.40;99.90;;;;;;5035964;28;20056;-30
2022/09/12 09:21:02;;;;;;;44.90;34.40;;;20.50;1.00;;;;;;5035138;28;20053;-30
2022/09/12 09:23:29;;;;;;;43.30;33.78;;;20.60;99.90;;;;;;5018328;28;20103;-30
2022/09/12 09:26:16;;;;;;;45.15;33.90;;;20.70;99.90;;;;;;5035142;28;20086;-30
2022/09/12 09:28:51;;;;;;;45.95;34.55;;;20.90;99.90;;;;;;5034489;28;20049;-30
2022/09/12 09:31:20;;;;;;;44.83;33.22;;;21.20;34.70;;;;;;5035022;28;20099;-30
2022/09/12 09:33:48;;;;;;;42.22;32.53;;;21.70;99.90;;;;;;5033787;28;20085;-30
2022/09/12 09:36:21;;;;;;;41.38;31.52;;;22.10;1.00;;;;;;5034585;28;20503;-30
2022/09/12 09:38:48;;;;;;;;;;;22.40;1.00;;;;;;5034346;28;20107;-31
2022/09/12 09:41:29;;;;;;;40.80;31.35;;;22.80;1.00;;;;;;5034669;28;20355;-32
2022/09/12 09:43:56;;;;;;;43.88;32.72;;;23.40;24.30;;;;;;5035650;28;20053;-31
2022/09/12 09:46:22;;;;;;;44.42;34.13;;;23.40;99.90;;;;;;5034705;28;20133;-31
2022/09/12 09:48:49;;;;;;;40.75;31.20;;;23.50;99.90;;;;;;5035381;28;20074;-32
2022/09/12 09:51:26;;;;;;;42.90;31.48;;;23.40;1.00;;;;;;5034570;28;20091;-31
2022/09/12 09:53:55;;;;;;;42.20;33.05;;;23.10;1.00;;;;;;5034573;28;20042;-31
2022/09/12 09:56:34;;;;;;;43.10;34.17;;;23.30;1.00;;;;;;5033876;28;20053;-31
2022/09/12 09:59:17;;;;;;;44.55;32.53;;;23.40;1.00;;;;;;5035327;28;20048;-30
2022/09/12 10:01:53;;;;;;;44.10;32.88;;;23.80;1.00;;;;;;5034438;28;20064;-31
2022/09/12 10:04:40;;;;;;;36.60;29.65;;;24.00;99.90;;;;;;5034132;28;20132;-31
2022/09/12 10:07:17;;;;;;;41.30;29.73;;;23.80;99.90;;;;;;5034715;28;20133;-30
2022/09/12 10:10:18;;;;;;;37.88;29.40;;;24.30;99.90;;;;;;5034528;28;20474;-30
2022/09/12 10:12:44;;;;;;;32.80;26.65;;;24.70;99.90;;;;;;5034264;28;20132;-30
2022/09/12 10:15:21;;;;;;;32.55;23.77;;;24.70;99.90;;;;;;5034259;28;20052;-30
2022/09/12 10:17:49;;;;;;;33.63;24.88;;;24.00;1.00;;;;;;5032970;28;20095;-30
2022/09/12 10:20:35;;;;;;;27.77;20.67;;;23.40;99.90;;;;;;5034667;28;20041;-29
2022/09/12 10:23:22;;;;;;;29.52;21.17;;;23.00;99.90;;;;;;5029848;28;20471;-29
2022/09/12 10:25:55;;;;;;;30.95;22.50;;;22.80;99.90;;;;;;5034643;28;20049;-29
2022/09/12 10:28:38;;;;;;;28.33;20.40;;;22.50;99.90;;;;;;5034514;28;20124;-29
2022/09/12 10:31:05;;;;;;;24.75;19.27;;;22.60;99.90;;;;;;5034848;28;20111;-30
2022/09/12 10:33:39;;;;;;;29.20;22.27;;;22.70;99.90;;;;;;5034757;28;20107;-29
2022/09/12 10:36:05;;;;;;;28.50;19.38;;;22.90;99.90;;;;;;5033905;28;20590;-29
2022/09/12 10:38:31;;;;;;;29.40;20.88;;;23.50;99.90;;;;;;5033894;28;20045;-29
2022/09/12 10:41:05;;;;;;;27.80;21.35;;;23.50;99.90;;;;;;5034676;28;20140;-29
2022/09/12 10:43:36;;;;;;;32.80;20.48;;;23.90;99.90;;;;;;5034355;28;20060;-29
2022/09/12 10:46:17;;;;;;;24.73;17.23;;;23.80;98.10;;;;;;5033643;28;20483;-29
2022/09/12 10:48:50;;;;;;;25.00;17.60;;;24.20;13.90;;;;;;5033667;28;20132;-29
2022/09/12 10:51:28;;;;;;;21.48;15.73;;;24.80;31.40;;;;;;5033177;28;20439;-28
2022/09/12 10:53:56;;;;;;;28.92;19.50;;;24.50;99.90;;;;;;5033661;28;20049;-29
2022/09/12 10:56:46;;;;;;;25.20;17.83;;;24.40;1.00;;;;;;5033646;28;20046;-29
2022/09/12 10:59:30;;;;;;;27.90;18.92;;;24.30;1.00;;;;;;5034197;28;20041;-28
2022/09/12 11:02:18;;;;;;;27.65;19.35;;;24.60;1.00;;;;;;5032621;28;20045;-28
2022/09/12 11:05:02;;;;;;;27.10;19.85;;;24.40;1.00;;;;;;5034163;28;20049;-29
2022/09/12 11:07:48;;;;;;;25.27;17.88;;;24.80;1.00;;;;;;5033595;28;20049;-29
2022/09/12 11:10:34;;;;;;;21.45;13.73;;;25.10;1.00;;;;;;5032577;28;20073;-29
2022/09/12 11:13:20;;;;;;;16.58;12.07;;;25.00;99.90;;;;;;5034090;28;20365;-29
2022/09/12 11:16:12;;;;;;;13.48;8.25;;;24.80;99.90;;;;;;5033468;28;20052;-28
2022/09/12 11:18:55;;;;;;;16.80;11.63;;;24.80;99.90;;;;;;5029495;28;20492;-29
2022/09/12 11:21:30;;;;;;;16.50;12.50;;;24.80;99.90;;;;;;5032309;28;20053;-28
2022/09/12 11:24:13;;;;;;;17.73;12.70;;;25.10;99.90;;;;;;5032459;28;20148;-28
2022/09/12 11:26:57;;;;;;;;;;;25.40;99.90;;;;;;5033740;28;20463;-28
2022/09/12 11:29:46;;;;;;;12.82;9.52;;;25.10;79.70;;;;;;5033264;28;20007;-28
2022/09/12 11:32:19;;;;;;;18.63;9.82;;;25.20;99.90;;;;;;5033328;28;20053;-28
2022/09/12 11:35:12;;;;;;;13.27;8.85;;;25.50;99.90;;;;;;5033617;28;20076;-28
2022/09/12 11:37:57;;;;;;;12.82;9.80;;;25.60;94.50;;;;;;5033368;28;20045;-28
2022/09/12 11:40:47;;;;;;;11.32;7.93;;;25.60;99.90;;;;;;5033194;28;20057;-28
2022/09/12 11:43:30;;;;;;;13.38;8.90;;;25.40;99.90;;;;;;5033852;28;20054;-28
2022/09/12 11:46:03;;;;;;;9.80;7.72;;;25.40;99.90;;;;;;5033286;28;20104;-28
2022/09/12 11:48:45;;;;;;;7.18;5.85;;;25.10;99.90;;;;;;5015998;28;20107;-28
2022/09/12 11:51:17;;;;;;;;;;;25.00;25.50;;;;;;5032422;28;20049;-28
2022/09/12 11:53:44;;;;;;;11.18;8.13;;;24.70;99.90;;;;;;5032172;28;19922;-28
2022/09/12 11:56:17;;;;;;;9.15;6.55;;;24.90;99.90;;;;;;5031901;28;20056;-27
2022/09/12 11:58:45;;;;;;;;;;;24.70;99.90;;;;;;5016025;28;20107;-28
2022/09/12 12:01:40;;;;;;;12.07;9.88;;;24.60;99.90;;;;;;5032511;28;20346;-28
2022/09/12 12:04:11;;;;;;;16.45;10.48;;;24.80;99.90;;;;;;5034321;28;20407;-28
2022/09/12 12:07:02;;;;;;;12.50;8.80;;;24.80;99.90;;;;;;5036543;28;20049;-27
2022/09/12 12:09:30;;;;;;;14.70;9.15;;;24.70;99.90;;;;;;5037096;28;20041;-27
2022/09/12 12:12:00;;;;;;;14.10;9.85;;;24.50;99.90;;;;;;5036506;28;20479;-27
2022/09/12 12:14:45;;;;;;;15.13;10.13;;;24.90;99.90;;;;;;5036444;28;20189;-28
2022/09/12 12:17:19;;;;;;;13.20;8.77;;;25.40;99.90;;;;;;5035772;28;20054;-28
2022/09/12 12:19:55;;;;;;;12.52;9.68;;;25.80;99.90;;;;;;5036397;28;20506;-27
2022/09/12 12:22:23;;;;;;;14.27;10.48;;;25.80;99.90;;;;;;5036223;28;20107;-28
2022/09/12 12:24:53;;;;;;;12.75;8.52;;;25.60;99.90;;;;;;5036262;28;20411;-28
2022/09/12 12:27:46;;;;;;;11.98;8.77;;;25.40;99.90;;;;;;5037277;28;20052;-27
2022/09/12 12:30:30;;;;;;;12.10;8.48;;;24.70;99.90;;;;;;5032723;28;20053;-27
2022/09/12 12:33:21;;;;;;;12.05;9.07;;;24.70;66.50;;;;;;5035402;28;20045;-27
2022/09/12 12:35:59;;;;;;;13.35;8.55;;;24.50;99.90;;;;;;5025538;28;20130;-27
2022/09/12 12:38:28;;;;;;;10.90;8.80;;;24.20;99.80;;;;;;5035719;28;20480;-28
2022/09/12 12:41:17;;;;;;;10.88;8.07;;;24.20;99.90;;;;;;5036210;28;20144;-27
2022/09/12 12:43:47;;;;;;;9.35;7.60;;;24.40;99.90;;;;;;5035565;28;20049;-27
2022/09/12 12:46:18;;;;;;;9.70;7.45;;;24.70;99.90;;;;;;5035923;28;20099;-27
2022/09/12 12:48:50;;;;;;;9.95;7.05;;;25.00;99.90;;;;;;5036347;28;20048;-27
2022/09/12 12:51:22;;;;;;;8.60;6.45;;;25.60;99.90;;;;;;5035893;28;20050;-27
2022/09/12 12:53:50;;;;;;;10.20;7.32;;;25.50;99.90;;;;;;5035867;28;20053;-27
2022/09/12 12:56:26;;;;;;;10.00;8.07;;;25.30;99.90;;;;;;5034527;28;20045;-28
2022/09/12 12:59:01;;;;;;;10.27;8.02;;;25.30;99.90;;;;;;5035633;28;20046;-27
2022/09/12 13:01:28;;;;;;;12.82;7.93;;;25.10;99.90;;;;;;5035598;28;20099;-27